createdAt,value
2023-02-23T00:02:07.620Z,98401.97
2023-02-23T00:04:36.034Z,98404.88
2023-02-23T00:07:04.140Z,98406.78
2023-02-23T00:09:35.499Z,98408.16
2023-02-23T00:12:08.986Z,98401.38
2023-02-23T00:14:37.772Z,98407.00
2023-02-23T00:17:10.879Z,98402.09
2023-02-23T00:19:37.832Z,98405.59
2023-02-23T00:22:04.891Z,98401.91
2023-02-23T00:24:36.519Z,98403.50
2023-02-23T00:27:06.517Z,98396.41
2023-02-23T00:29:39.381Z,98407.66
2023-02-23T00:32:06.630Z,98402.78
2023-02-23T00:34:34.792Z,98398.25
2023-02-23T00:37:01.652Z,98401.81
2023-02-23T00:39:31.480Z,98397.19
2023-02-23T00:42:03.195Z,98404.28
2023-02-23T00:44:32.443Z,98397.66
2023-02-23T00:47:00.298Z,98397.25
2023-02-23T00:49:27.493Z,98393.94
2023-02-23T00:51:54.279Z,98398.16
2023-02-23T00:54:22.286Z,98398.16
2023-02-23T00:56:52.621Z,98399.38
2023-02-23T00:59:20.538Z,98396.59
2023-02-23T01:01:48.533Z,98400.41
2023-02-23T01:04:16.602Z,98401.38
2023-02-23T01:06:43.530Z,98399.56
2023-02-23T01:09:16.814Z,98393.63
2023-02-23T01:11:46.790Z,98398.75
2023-02-23T01:14:14.158Z,98396.56
2023-02-23T01:16:41.142Z,98400.88
2023-02-23T01:19:08.357Z,98392.03
2023-02-23T01:21:39.674Z,98390.94
2023-02-23T01:24:07.014Z,98388.75
2023-02-23T01:26:41.769Z,98391.16
2023-02-23T01:29:17.990Z,98396.25
2023-02-23T01:31:51.335Z,98385.75
2023-02-23T01:34:21.596Z,98388.97
2023-02-23T01:36:48.546Z,98390.06
2023-02-23T01:39:20.156Z,98391.25
2023-02-23T01:41:47.107Z,98392.53
2023-02-23T01:44:13.859Z,98383.06
2023-02-23T01:46:46.439Z,98383.06
2023-02-23T01:49:26.531Z,98378.94
2023-02-23T01:52:02.212Z,98378.66
2023-02-23T01:54:38.633Z,98380.56
2023-02-23T01:57:13.292Z,98383.47
2023-02-23T01:59:46.823Z,98383.69
2023-02-23T02:02:15.911Z,98387.72
2023-02-23T02:04:44.588Z,98379.38
2023-02-23T02:07:23.825Z,98380.56
2023-02-23T02:10:11.499Z,98380.34
2023-02-23T02:12:58.568Z,98377.44
2023-02-23T02:15:38.672Z,98372.84
2023-02-23T02:18:42.719Z,98376.03
2023-02-23T02:22:04.915Z,98372.94
2023-02-23T02:25:06.968Z,98372.09
2023-02-23T02:28:27.352Z,98368.13
2023-02-23T02:31:19.806Z,98370.34
2023-02-23T02:34:22.429Z,98367.34
2023-02-23T02:37:22.993Z,98364.84
2023-02-23T02:40:18.180Z,98364.56
2023-02-23T02:43:10.216Z,98359.66
2023-02-23T02:45:59.086Z,98357.97
2023-02-23T02:49:10.953Z,98357.41
2023-02-23T02:52:08.826Z,98359.59
2023-02-23T02:55:09.379Z,98362.56
2023-02-23T02:57:37.845Z,98358.75
2023-02-23T03:00:24.300Z,98361.78
2023-02-23T03:03:09.584Z,98364.06
2023-02-23T03:06:08.568Z,98362.72
2023-02-23T03:09:13.277Z,98361.13
2023-02-23T03:12:24.366Z,98356.13
2023-02-23T03:15:47.889Z,98360.34
2023-02-23T03:19:02.278Z,98353.66
2023-02-23T03:22:07.921Z,98367.53
2023-02-23T03:24:53.021Z,98360.13
2023-02-23T03:28:15.051Z,98360.63
2023-02-23T03:31:19.555Z,98363.03
2023-02-23T03:34:14.378Z,98359.53
2023-02-23T03:37:10.216Z,98365.75
2023-02-23T03:40:09.655Z,98369.75
2023-02-23T03:42:58.588Z,98360.34
2023-02-23T03:45:48.705Z,98362.53
2023-02-23T03:48:39.597Z,98364.41
2023-02-23T03:51:30.421Z,98368.53
2023-02-23T03:54:32.061Z,98368.88
2023-02-23T03:57:22.067Z,98360.00
2023-02-23T04:00:20.152Z,98366.69
2023-02-23T04:03:11.781Z,98359.09
2023-02-23T04:06:00.190Z,98360.94
2023-02-23T04:08:54.190Z,98363.63
2023-02-23T04:11:54.837Z,98365.81
2023-02-23T04:15:11.144Z,98366.69
2023-02-23T04:17:39.374Z,98365.31
2023-02-23T04:20:07.080Z,98367.78
2023-02-23T04:22:35.675Z,98377.00
2023-02-23T04:25:02.638Z,98377.72
2023-02-23T04:27:29.455Z,98375.31
2023-02-23T04:29:56.213Z,98366.41
2023-02-23T04:32:23.115Z,98373.44
2023-02-23T04:34:50.152Z,98372.19
2023-02-23T04:37:16.965Z,98375.19
2023-02-23T04:39:48.420Z,98381.38
2023-02-23T04:42:18.323Z,98375.91
2023-02-23T04:44:46.184Z,98377.22
2023-02-23T04:47:15.630Z,98376.72
2023-02-23T04:49:43.881Z,98372.91
2023-02-23T04:52:10.656Z,98378.31
2023-02-23T04:54:43.811Z,98381.53
2023-02-23T04:57:11.400Z,98373.44
2023-02-23T04:59:38.223Z,98374.09
2023-02-23T05:02:05.258Z,98377.38
2023-02-23T05:04:35.252Z,98375.19
2023-02-23T05:07:03.617Z,98370.88
2023-02-23T05:09:31.774Z,98372.25
2023-02-23T05:11:58.949Z,98381.19
2023-02-23T05:14:25.919Z,98380.38
2023-02-23T05:16:55.884Z,98369.88
2023-02-23T05:19:23.021Z,98367.69
2023-02-23T05:21:50.612Z,98365.47
2023-02-23T05:24:18.866Z,98368.69
2023-02-23T05:26:45.774Z,98368.78
2023-02-23T05:29:13.080Z,98365.84
2023-02-23T05:31:40.719Z,98368.25
2023-02-23T05:34:10.699Z,98370.16
2023-02-23T05:36:38.085Z,98369.06
2023-02-23T05:39:04.975Z,98369.88
2023-02-23T05:41:31.728Z,98377.16
2023-02-23T05:43:58.511Z,98369.06
2023-02-23T05:46:27.423Z,98369.88
2023-02-23T05:49:00.713Z,98379.06
2023-02-23T05:51:30.887Z,98382.06
2023-02-23T05:53:58.273Z,98378.75
2023-02-23T05:56:26.205Z,98378.75
2023-02-23T05:59:00.112Z,98373.88
2023-02-23T06:01:27.976Z,98366.84
2023-02-23T06:03:56.248Z,98382.28
2023-02-23T06:06:25.619Z,98372.56
2023-02-23T06:08:53.249Z,98378.31
2023-02-23T06:11:20.590Z,98387.31
2023-02-23T06:13:49.992Z,98384.63
2023-02-23T06:16:16.894Z,98394.84
2023-02-23T06:18:44.199Z,98393.50
2023-02-23T06:21:11.003Z,98390.31
2023-02-23T06:23:38.015Z,98397.69
2023-02-23T06:26:08.317Z,98400.91
2023-02-23T06:28:35.466Z,98403.28
2023-02-23T06:31:02.678Z,98401.69
2023-02-23T06:33:29.787Z,98401.09
2023-02-23T06:35:56.612Z,98413.50
2023-02-23T06:38:23.948Z,98408.34
2023-02-23T06:40:50.839Z,98414.91
2023-02-23T06:43:17.704Z,98408.78
2023-02-23T06:45:46.514Z,98417.72
2023-02-23T06:48:13.355Z,98414.75
2023-02-23T06:50:40.273Z,98415.03
2023-02-23T06:53:07.147Z,98417.97
2023-02-23T06:55:34.009Z,98423.03
2023-02-23T06:58:01.027Z,98427.31
2023-02-23T07:00:27.809Z,98429.22
2023-02-23T07:02:55.005Z,98432.16
2023-02-23T07:05:22.762Z,98434.84
2023-02-23T07:07:49.619Z,98437.25
2023-02-23T07:10:16.927Z,98437.25
2023-02-23T07:12:44.419Z,98436.16
2023-02-23T07:15:11.764Z,98441.47
2023-02-23T07:17:38.646Z,98438.00
2023-02-23T07:20:06.350Z,98441.72
2023-02-23T07:22:35.201Z,98447.19
2023-02-23T07:25:02.120Z,98451.50
2023-02-23T07:27:29.014Z,98451.44
2023-02-23T07:29:55.888Z,98446.53
2023-02-23T07:32:22.900Z,98445.63
2023-02-23T07:34:49.809Z,98453.16
2023-02-23T07:37:18.001Z,98455.50
2023-02-23T07:39:44.752Z,98450.31
2023-02-23T07:42:11.797Z,98446.44
2023-02-23T07:44:42.200Z,98448.84
2023-02-23T07:47:09.010Z,98457.47
2023-02-23T07:49:35.754Z,98460.19
2023-02-23T07:52:05.493Z,98458.78
2023-02-23T07:54:32.670Z,98461.78
2023-02-23T07:57:00.216Z,98454.47
2023-02-23T07:59:27.798Z,98456.53
2023-02-23T08:01:54.684Z,98460.25
2023-02-23T08:04:21.773Z,98456.97
2023-02-23T08:06:48.660Z,98458.28
2023-02-23T08:09:15.532Z,98466.63
2023-02-23T08:11:45.217Z,98457.41
2023-02-23T08:14:16.427Z,98457.59
2023-02-23T08:16:43.173Z,98467.25
2023-02-23T08:19:10.279Z,98459.03
2023-02-23T08:21:37.285Z,98458.16
2023-02-23T08:24:04.403Z,98453.69
2023-02-23T08:26:31.227Z,98463.00
2023-02-23T08:28:58.267Z,98466.72
2023-02-23T08:31:27.474Z,98463.41
2023-02-23T08:33:54.429Z,98459.50
2023-02-23T08:36:21.627Z,98455.31
2023-02-23T08:38:48.973Z,98458.66
2023-02-23T08:41:16.536Z,98458.75
2023-02-23T08:43:44.112Z,98460.75
2023-02-23T08:46:11.441Z,98462.06
2023-02-23T08:48:40.434Z,98464.97
2023-02-23T08:51:08.513Z,98465.19
2023-02-23T08:53:36.423Z,98461.84
2023-02-23T08:56:07.110Z,98463.16
2023-02-23T08:58:37.058Z,98462.94
2023-02-23T09:01:05.006Z,98463.94
2023-02-23T09:03:35.255Z,98465.59
2023-02-23T09:06:13.229Z,98471.78
2023-02-23T09:08:40.199Z,98470.28
2023-02-23T09:11:07.113Z,98471.44
2023-02-23T09:13:34.087Z,98469.44
2023-02-23T09:16:00.978Z,98466.44
2023-02-23T09:18:29.448Z,98469.50
2023-02-23T09:20:57.058Z,98472.28
2023-02-23T09:23:28.151Z,98471.03
2023-02-23T09:25:54.990Z,98465.31
2023-02-23T09:28:22.147Z,98464.31
2023-02-23T09:30:49.172Z,98472.47
2023-02-23T09:33:17.348Z,98465.31
2023-02-23T09:35:44.272Z,98466.78
2023-02-23T09:38:11.013Z,98461.41
2023-02-23T09:40:53.134Z,98468.91
2023-02-23T09:43:40.843Z,98462.56
2023-02-23T09:46:51.165Z,98469.28
2023-02-23T09:49:24.503Z,98469.47
2023-02-23T09:51:58.810Z,98463.28
2023-02-23T09:54:32.677Z,98467.16
2023-02-23T09:57:06.545Z,98469.28
2023-02-23T09:59:34.941Z,98468.50
2023-02-23T10:02:34.382Z,98477.50
2023-02-23T10:05:09.808Z,98477.69
2023-02-23T10:07:54.039Z,98480.75
2023-02-23T10:10:49.270Z,98475.94
2023-02-23T10:14:09.848Z,98473.22
2023-02-23T10:16:51.228Z,98472.59
2023-02-23T10:19:53.404Z,98476.28
2023-02-23T10:22:21.530Z,98479.69
2023-02-23T10:24:57.726Z,98476.81
2023-02-23T10:27:41.984Z,98470.13
2023-02-23T10:30:35.450Z,98483.22
2023-02-23T10:33:16.983Z,98484.03
2023-02-23T10:35:45.222Z,98478.28
2023-02-23T10:38:19.910Z,98493.47
2023-02-23T10:40:55.865Z,98491.72
2023-02-23T10:43:23.551Z,98482.94
2023-02-23T10:45:53.636Z,98485.66
2023-02-23T10:48:43.210Z,98483.22
2023-02-23T10:51:32.408Z,98492.06
2023-02-23T10:54:34.254Z,98488.53
2023-02-23T10:57:02.016Z,98486.44
2023-02-23T10:59:29.276Z,98488.66
2023-02-23T11:02:02.224Z,98485.66
2023-02-23T11:04:35.079Z,98478.97
2023-02-23T11:07:23.203Z,98482.63
2023-02-23T11:09:51.890Z,98484.75
2023-02-23T11:12:37.773Z,98480.59
2023-02-23T11:15:35.244Z,98471.63
2023-02-23T11:18:06.834Z,98470.81
2023-02-23T11:20:38.436Z,98467.63
2023-02-23T11:23:28.833Z,98467.63
2023-02-23T11:26:01.291Z,98459.75
2023-02-23T11:28:41.119Z,98461.84
2023-02-23T11:31:28.402Z,98457.00
2023-02-23T11:33:57.433Z,98457.44
2023-02-23T11:36:24.133Z,98453.75
2023-02-23T11:39:19.973Z,98449.72
2023-02-23T11:41:46.940Z,98445.44
2023-02-23T11:44:25.213Z,98447.25
2023-02-23T11:46:52.529Z,98448.88
2023-02-23T11:49:29.253Z,98441.81
2023-02-23T11:51:59.323Z,98439.88
2023-02-23T11:54:33.681Z,98446.28
2023-02-23T11:57:02.906Z,98433.31
2023-02-23T11:59:38.170Z,98433.66
2023-02-23T12:02:23.240Z,98429.00
2023-02-23T12:05:05.050Z,98441.31
2023-02-23T12:07:51.212Z,98429.13
2023-02-23T12:10:34.308Z,98427.66
2023-02-23T12:13:07.320Z,98423.28
2023-02-23T12:15:59.883Z,98421.03
2023-02-23T12:18:46.666Z,98423.28
2023-02-23T12:21:39.785Z,98425.56
2023-02-23T12:24:28.356Z,98424.78
2023-02-23T12:27:01.575Z,98424.03
2023-02-23T12:29:52.167Z,98416.34
2023-02-23T12:33:02.322Z,98426.44
2023-02-23T12:36:21.330Z,98412.19
2023-02-23T12:39:12.029Z,98413.66
2023-02-23T12:41:51.317Z,98417.03
2023-02-23T12:44:57.291Z,98417.34
2023-02-23T12:47:42.145Z,98418.47
2023-02-23T12:50:26.349Z,98416.84
2023-02-23T12:53:46.359Z,98415.44
2023-02-23T12:56:34.142Z,98412.84
2023-02-23T12:59:32.976Z,98407.22
2023-02-23T13:02:22.013Z,98412.84
2023-02-23T13:05:13.071Z,98410.28
2023-02-23T13:07:57.249Z,98410.47
2023-02-23T13:11:16.819Z,98407.94
2023-02-23T13:13:52.649Z,98409.53
2023-02-23T13:16:33.111Z,98410.31
2023-02-23T13:19:21.386Z,98412.22
2023-02-23T13:22:24.928Z,98407.47
2023-02-23T13:24:58.378Z,98403.91
2023-02-23T13:27:37.573Z,98408.59
2023-02-23T13:30:10.172Z,98412.47
2023-02-23T13:32:38.821Z,98417.97
2023-02-23T13:35:20.361Z,98405.56
2023-02-23T13:37:59.606Z,98408.13
2023-02-23T13:40:51.980Z,98402.19
2023-02-23T13:43:32.488Z,98410.53
2023-02-23T13:46:21.661Z,98408.19
2023-02-23T13:49:02.901Z,98401.97
2023-02-23T13:51:52.022Z,98406.63
2023-02-23T13:54:32.297Z,98399.13
2023-02-23T13:57:05.570Z,98399.13
2023-02-23T13:59:42.936Z,98394.47
2023-02-23T14:02:40.894Z,98396.56
2023-02-23T14:05:18.438Z,98399.63
2023-02-23T14:07:52.687Z,98389.84
2023-02-23T14:10:27.712Z,98398.31
2023-02-23T14:13:21.093Z,98393.22
2023-02-23T14:15:53.531Z,98390.50
2023-02-23T14:18:26.243Z,98394.81
2023-02-23T14:21:09.488Z,98394.81
2023-02-23T14:23:51.989Z,98402.81
2023-02-23T14:26:30.128Z,98389.41
2023-02-23T14:29:27.696Z,98395.00
2023-02-23T14:32:00.873Z,98398.16
2023-02-23T14:34:46.155Z,98400.84
2023-02-23T14:37:32.883Z,98391.41
2023-02-23T14:40:19.256Z,98399.41
2023-02-23T14:42:59.936Z,98396.53
2023-02-23T14:45:32.464Z,98405.97
2023-02-23T14:48:06.800Z,98398.31
2023-02-23T14:50:36.624Z,98400.69
2023-02-23T14:53:09.491Z,98397.50
2023-02-23T14:55:41.982Z,98402.25
2023-02-23T14:58:30.256Z,98401.78
2023-02-23T15:00:57.138Z,98397.44
2023-02-23T15:03:23.970Z,98400.94
2023-02-23T15:06:01.188Z,98409.72
2023-02-23T15:08:31.636Z,98396.28
2023-02-23T15:11:04.837Z,98395.81
2023-02-23T15:13:41.832Z,98404.28
2023-02-23T15:16:24.205Z,98405.06
2023-02-23T15:18:53.263Z,98405.06
2023-02-23T15:21:23.874Z,98407.16
2023-02-23T15:23:59.527Z,98403.13
2023-02-23T15:26:36.124Z,98407.78
2023-02-23T15:29:15.426Z,98402.84
2023-02-23T15:31:54.382Z,98405.22
2023-02-23T15:34:26.324Z,98398.19
2023-02-23T15:37:10.526Z,98398.19
2023-02-23T15:40:06.115Z,98397.06
2023-02-23T15:42:50.565Z,98403.19
2023-02-23T15:45:54.410Z,98404.16
2023-02-23T15:48:26.739Z,98405.91
2023-02-23T15:50:57.848Z,98405.41
2023-02-23T15:53:35.990Z,98406.53
2023-02-23T15:56:20.041Z,98406.19
2023-02-23T15:58:57.022Z,98410.84
2023-02-23T16:01:28.698Z,98410.22
2023-02-23T16:04:13.171Z,98404.44
2023-02-23T16:07:11.695Z,98405.41
2023-02-23T16:09:39.473Z,98408.13
2023-02-23T16:12:21.363Z,98405.06
2023-02-23T16:14:58.979Z,98407.16
2023-02-23T16:17:44.602Z,98406.69
2023-02-23T16:20:43.685Z,98403.19
2023-02-23T16:23:33.273Z,98408.59
2023-02-23T16:26:11.891Z,98401.38
2023-02-23T16:28:46.361Z,98410.16
2023-02-23T16:31:25.612Z,98409.19
2023-02-23T16:33:59.868Z,98404.72
2023-02-23T16:36:39.759Z,98402.63
2023-02-23T16:39:17.331Z,98404.53
2023-02-23T16:41:47.373Z,98405.66
2023-02-23T16:44:21.709Z,98398.28
2023-02-23T16:46:56.268Z,98409.47
2023-02-23T16:49:23.586Z,98412.81
2023-02-23T16:51:51.676Z,98409.13
2023-02-23T16:54:18.579Z,98412.47
2023-02-23T16:56:48.243Z,98406.34
2023-02-23T16:59:18.860Z,98410.50
2023-02-23T17:01:47.759Z,98412.56
2023-02-23T17:04:17.240Z,98407.75
2023-02-23T17:06:52.792Z,98406.78
2023-02-23T17:09:19.718Z,98410.91
2023-02-23T17:11:47.242Z,98414.41
2023-02-23T17:14:28.171Z,98409.00
2023-02-23T17:17:00.703Z,98414.75
2023-02-23T17:19:30.215Z,98422.88
2023-02-23T17:21:57.341Z,98422.56
2023-02-23T17:24:26.130Z,98428.31
2023-02-23T17:26:53.492Z,98427.00
2023-02-23T17:29:20.469Z,98422.19
2023-02-23T17:31:47.516Z,98426.97
2023-02-23T17:34:14.652Z,98426.47
2023-02-23T17:36:41.405Z,98423.75
2023-02-23T17:39:09.791Z,98427.59
2023-02-23T17:41:39.090Z,98426.47
2023-02-23T17:44:05.977Z,98426.16
2023-02-23T17:46:32.971Z,98434.41
2023-02-23T17:48:59.783Z,98428.81
2023-02-23T17:51:26.673Z,98435.34
2023-02-23T17:53:54.000Z,98430.72
2023-02-23T17:56:21.028Z,98431.66
2023-02-23T17:58:48.276Z,98435.47
2023-02-23T18:01:16.309Z,98429.56
2023-02-23T18:03:43.894Z,98431.75
2023-02-23T18:06:13.418Z,98441.81
2023-02-23T18:08:42.927Z,98433.81
2023-02-23T18:11:10.350Z,98435.91
2023-02-23T18:13:37.389Z,98443.53
2023-02-23T18:16:10.721Z,98438.13
2023-02-23T18:18:46.451Z,98439.53
2023-02-23T18:21:17.693Z,98447.16
2023-02-23T18:23:45.389Z,98442.34
2023-02-23T18:26:16.186Z,98434.84
2023-02-23T18:28:46.882Z,98445.78
2023-02-23T18:31:28.180Z,98448.81
2023-02-23T18:34:04.868Z,98442.28
2023-02-23T18:36:35.778Z,98441.38
2023-02-23T18:39:07.333Z,98445.47
2023-02-23T18:41:34.269Z,98445.19
2023-02-23T18:44:05.304Z,98442.78
2023-02-23T18:46:35.485Z,98443.38
2023-02-23T18:49:03.877Z,98447.97
2023-02-23T18:51:30.916Z,98444.16
2023-02-23T18:53:57.714Z,98434.94
2023-02-23T18:56:28.201Z,98435.75
2023-02-23T18:59:01.543Z,98435.25
2023-02-23T19:01:37.486Z,98431.72
2023-02-23T19:04:07.461Z,98441.16
2023-02-23T19:06:37.507Z,98434.94
2023-02-23T19:09:09.658Z,98433.03
2023-02-23T19:11:37.760Z,98433.03
2023-02-23T19:14:11.212Z,98429.00
2023-02-23T19:16:38.777Z,98427.72
2023-02-23T19:19:07.643Z,98428.50
2023-02-23T19:21:36.229Z,98424.03
2023-02-23T19:24:04.968Z,98423.31
2023-02-23T19:26:33.798Z,98418.53
2023-02-23T19:29:01.047Z,98420.94
2023-02-23T19:31:28.750Z,98423.94
2023-02-23T19:33:59.729Z,98429.97
2023-02-23T19:36:33.813Z,98432.41
2023-02-23T19:39:10.465Z,98429.69
2023-02-23T19:41:40.201Z,98435.22
2023-02-23T19:44:07.503Z,98427.38
2023-02-23T19:46:35.132Z,98427.38
2023-02-23T19:49:03.058Z,98431.69
2023-02-23T19:51:33.034Z,98427.38
2023-02-23T19:54:00.071Z,98419.69
2023-02-23T19:56:28.498Z,98423.00
2023-02-23T19:58:57.619Z,98424.28
2023-02-23T20:01:29.986Z,98433.22
2023-02-23T20:04:06.960Z,98432.91
2023-02-23T20:06:41.113Z,98428.59
2023-02-23T20:09:09.072Z,98438.34
2023-02-23T20:11:36.198Z,98432.63
2023-02-23T20:14:05.143Z,98442.47
2023-02-23T20:16:35.164Z,98438.28
2023-02-23T20:19:03.801Z,98432.94
2023-02-23T20:21:32.313Z,98431.81
2023-02-23T20:24:01.567Z,98435.56
2023-02-23T20:26:35.239Z,98429.66
2023-02-23T20:29:06.702Z,98431.25
2023-02-23T20:31:37.407Z,98436.34
2023-02-23T20:34:10.845Z,98433.63
2023-02-23T20:36:38.660Z,98432.25
2023-02-23T20:39:06.010Z,98437.78
2023-02-23T20:41:33.194Z,98436.97
2023-02-23T20:44:01.162Z,98440.06
2023-02-23T20:46:30.399Z,98439.78
2023-02-23T20:48:59.195Z,98438.47
2023-02-23T20:51:26.853Z,98428.13
2023-02-23T20:53:54.274Z,98426.84
2023-02-23T20:56:23.894Z,98427.13
2023-02-23T20:58:54.614Z,98425.84
2023-02-23T21:01:25.754Z,98418.81
2023-02-23T21:03:55.195Z,98411.81
2023-02-23T21:06:25.120Z,98407.16
2023-02-23T21:08:55.755Z,98415.00
2023-02-23T21:11:27.304Z,98409.59
2023-02-23T21:13:54.328Z,98404.16
2023-02-23T21:16:26.159Z,98410.25
2023-02-23T21:19:03.899Z,98412.69
2023-02-23T21:21:38.931Z,98423.53
2023-02-23T21:24:06.500Z,98418.72
2023-02-23T21:26:33.367Z,98416.41
2023-02-23T21:29:00.151Z,98418.00
2023-02-23T21:31:27.209Z,98419.94
2023-02-23T21:33:57.269Z,98413.19
2023-02-23T21:36:24.224Z,98418.94
2023-02-23T21:38:51.368Z,98420.31
2023-02-23T21:41:18.857Z,98421.94
2023-02-23T21:43:46.563Z,98416.22
2023-02-23T21:46:16.385Z,98410.81
2023-02-23T21:48:43.923Z,98419.94
2023-02-23T21:51:15.867Z,98413.19
2023-02-23T21:53:46.415Z,98414.78
2023-02-23T21:56:22.263Z,98408.19
2023-02-23T21:58:54.952Z,98406.59
2023-02-23T22:01:37.699Z,98392.13
2023-02-23T22:04:07.774Z,98395.94
2023-02-23T22:06:40.445Z,98396.56
2023-02-23T22:09:15.384Z,98401.69
2023-02-23T22:11:47.518Z,98401.19
2023-02-23T22:14:16.655Z,98398.47
2023-02-23T22:16:44.215Z,98393.84
2023-02-23T22:19:12.628Z,98409.31
2023-02-23T22:21:41.812Z,98415.50
2023-02-23T22:24:16.874Z,98406.28
2023-02-23T22:26:55.880Z,98402.28
2023-02-23T22:29:25.722Z,98408.19
2023-02-23T22:31:52.980Z,98405.28
2023-02-23T22:34:22.328Z,98402.91
2023-02-23T22:36:50.193Z,98404.50
2023-02-23T22:39:19.539Z,98402.91
2023-02-23T22:41:48.092Z,98396.38
2023-02-23T22:44:21.357Z,98400.19
2023-02-23T22:46:48.784Z,98402.91
2023-02-23T22:49:16.413Z,98389.84
2023-02-23T22:51:44.207Z,98401.47
2023-02-23T22:54:16.108Z,98400.38
2023-02-23T22:56:42.952Z,98391.47
2023-02-23T22:59:11.155Z,98395.75
2023-02-23T23:01:39.161Z,98390.75
2023-02-23T23:04:10.378Z,98395.66
2023-02-23T23:06:43.101Z,98390.75
2023-02-23T23:09:12.327Z,98387.25
2023-02-23T23:11:42.443Z,98385.34
2023-02-23T23:14:11.304Z,98376.72
2023-02-23T23:16:48.451Z,98385.75
2023-02-23T23:19:25.954Z,98379.53
2023-02-23T23:21:55.995Z,98376.53
2023-02-23T23:24:25.523Z,98377.91
2023-02-23T23:27:00.203Z,98384.16
2023-02-23T23:29:32.754Z,98378.41
2023-02-23T23:32:01.543Z,98371.28
2023-02-23T23:34:28.557Z,98377.22
2023-02-23T23:36:56.856Z,98373.72
2023-02-23T23:39:26.322Z,98372.91
2023-02-23T23:41:56.684Z,98371.63
2023-02-23T23:44:29.178Z,98371.28
2023-02-23T23:46:56.844Z,98370.81
2023-02-23T23:49:25.710Z,98377.63
2023-02-23T23:51:56.929Z,98370.13
2023-02-23T23:54:28.878Z,98373.44
2023-02-23T23:56:57.438Z,98371.50
2023-02-23T23:59:28.776Z,98368.31
